sensor_id;sensor_type;location;lat;lon;timestamp;P1;P2;P0
76101;PMS7003;64830;46.910;6.354;2023-06-22T00:01:54;5.50;5.50;3.25
76101;PMS7003;64830;46.910;6.354;2023-06-22T00:04:19;7.25;6.00;5.00
76101;PMS7003;64830;46.910;6.354;2023-06-22T00:06:45;6.25;6.25;3.50
76101;PMS7003;64830;46.910;6.354;2023-06-22T00:09:10;5.75;5.50;4.25
76101;PMS7003;64830;46.910;6.354;2023-06-22T00:11:39;6.00;5.25;4.00
76101;PMS7003;64830;46.910;6.354;2023-06-22T00:14:04;7.50;7.50;5.25
76101;PMS7003;64830;46.910;6.354;2023-06-22T00:16:33;6.00;6.00;4.75
76101;PMS7003;64830;46.910;6.354;2023-06-22T00:18:58;5.00;5.00;4.25
76101;PMS7003;64830;46.910;6.354;2023-06-22T00:21:26;7.50;6.50;4.75
76101;PMS7003;64830;46.910;6.354;2023-06-22T00:23:51;7.00;5.50;4.25
76101;PMS7003;64830;46.910;6.354;2023-06-22T00:26:17;7.00;5.75;4.25
76101;PMS7003;64830;46.910;6.354;2023-06-22T00:28:42;5.75;5.75;5.00
76101;PMS7003;64830;46.910;6.354;2023-06-22T00:31:08;7.00;6.25;5.00
76101;PMS7003;64830;46.910;6.354;2023-06-22T00:33:33;7.75;5.00;4.00
76101;PMS7003;64830;46.910;6.354;2023-06-22T00:35:59;7.00;5.00;4.00
76101;PMS7003;64830;46.910;6.354;2023-06-22T00:38:24;9.25;7.00;5.25
76101;PMS7003;64830;46.910;6.354;2023-06-22T00:40:50;7.50;5.75;4.00
76101;PMS7003;64830;46.910;6.354;2023-06-22T00:43:15;9.25;5.25;3.75
76101;PMS7003;64830;46.910;6.354;2023-06-22T00:45:40;9.00;7.00;5.00
76101;PMS7003;64830;46.910;6.354;2023-06-22T00:48:06;5.50;5.25;3.75
76101;PMS7003;64830;46.910;6.354;2023-06-22T00:50:32;6.00;6.00;5.50
76101;PMS7003;64830;46.910;6.354;2023-06-22T00:53:06;4.25;4.25;3.50
76101;PMS7003;64830;46.910;6.354;2023-06-22T00:55:37;7.25;5.25;3.75
76101;PMS7003;64830;46.910;6.354;2023-06-22T00:58:08;6.00;5.00;4.00
76101;PMS7003;64830;46.910;6.354;2023-06-22T01:00:35;4.25;4.00;4.00
76101;PMS7003;64830;46.910;6.354;2023-06-22T01:03:01;6.25;4.75;3.75
76101;PMS7003;64830;46.910;6.354;2023-06-22T01:05:27;5.50;5.50;4.25
76101;PMS7003;64830;46.910;6.354;2023-06-22T01:10:54;7.75;5.75;3.00
76101;PMS7003;64830;46.910;6.354;2023-06-22T01:13:35;9.00;6.25;4.25
76101;PMS7003;64830;46.910;6.354;2023-06-22T01:18:57;10.50;6.75;5.00
76101;PMS7003;64830;46.910;6.354;2023-06-22T01:21:30;5.75;5.25;4.00
76101;PMS7003;64830;46.910;6.354;2023-06-22T01:24:21;6.25;4.00;3.00
76101;PMS7003;64830;46.910;6.354;2023-06-22T01:29:31;9.25;6.50;5.00
76101;PMS7003;64830;46.910;6.354;2023-06-22T01:31:58;8.00;7.00;6.00
76101;PMS7003;64830;46.910;6.354;2023-06-22T01:34:25;9.50;8.25;5.50
76101;PMS7003;64830;46.910;6.354;2023-06-22T01:36:51;7.00;7.00;6.00
76101;PMS7003;64830;46.910;6.354;2023-06-22T01:39:17;7.25;5.75;4.50
76101;PMS7003;64830;46.910;6.354;2023-06-22T01:41:43;5.00;5.00;3.75
76101;PMS7003;64830;46.910;6.354;2023-06-22T01:44:11;9.75;7.00;5.00
76101;PMS7003;64830;46.910;6.354;2023-06-22T01:46:37;4.75;4.75;3.50
76101;PMS7003;64830;46.910;6.354;2023-06-22T01:49:04;6.25;5.50;3.50
76101;PMS7003;64830;46.910;6.354;2023-06-22T01:51:31;6.75;6.75;4.25
76101;PMS7003;64830;46.910;6.354;2023-06-22T01:53:56;5.75;4.50;4.00
76101;PMS7003;64830;46.910;6.354;2023-06-22T01:56:22;7.00;4.50;4.00
76101;PMS7003;64830;46.910;6.354;2023-06-22T01:58:54;7.75;5.00;4.00
76101;PMS7003;64830;46.910;6.354;2023-06-22T02:02:07;5.00;5.00;4.00
76101;PMS7003;64830;46.910;6.354;2023-06-22T02:07:10;7.00;6.75;5.50
76101;PMS7003;64830;46.910;6.354;2023-06-22T02:09:39;8.50;7.50;5.50
76101;PMS7003;64830;46.910;6.354;2023-06-22T02:12:07;5.00;5.00;4.50
76101;PMS7003;64830;46.910;6.354;2023-06-22T02:14:35;4.00;4.00;3.00
76101;PMS7003;64830;46.910;6.354;2023-06-22T02:17:01;8.00;6.25;5.25
76101;PMS7003;64830;46.910;6.354;2023-06-22T02:19:27;7.75;6.50;4.75
76101;PMS7003;64830;46.910;6.354;2023-06-22T02:21:58;7.50;7.25;5.50
76101;PMS7003;64830;46.910;6.354;2023-06-22T02:24:23;8.75;6.25;3.50
76101;PMS7003;64830;46.910;6.354;2023-06-22T02:26:49;6.75;6.25;3.50
76101;PMS7003;64830;46.910;6.354;2023-06-22T02:29:14;8.25;7.75;5.00
76101;PMS7003;64830;46.910;6.354;2023-06-22T02:31:39;6.00;6.00;4.75
76101;PMS7003;64830;46.910;6.354;2023-06-22T02:34:05;3.50;3.00;3.00
76101;PMS7003;64830;46.910;6.354;2023-06-22T02:36:30;6.75;6.00;4.25
76101;PMS7003;64830;46.910;6.354;2023-06-22T02:38:58;10.00;6.50;4.25
76101;PMS7003;64830;46.910;6.354;2023-06-22T02:41:26;10.00;8.00;5.00
76101;PMS7003;64830;46.910;6.354;2023-06-22T02:43:52;6.50;5.50;4.00
76101;PMS7003;64830;46.910;6.354;2023-06-22T02:46:17;10.25;7.25;5.00
76101;PMS7003;64830;46.910;6.354;2023-06-22T02:48:42;5.25;4.75;3.00
76101;PMS7003;64830;46.910;6.354;2023-06-22T02:51:08;6.00;6.00;4.50
76101;PMS7003;64830;46.910;6.354;2023-06-22T02:53:33;6.00;6.00;4.25
76101;PMS7003;64830;46.910;6.354;2023-06-22T02:56:00;8.50;5.25;3.25
76101;PMS7003;64830;46.910;6.354;2023-06-22T02:58:28;5.75;5.00;2.50
76101;PMS7003;64830;46.910;6.354;2023-06-22T03:00:53;6.25;6.00;4.00
76101;PMS7003;64830;46.910;6.354;2023-06-22T03:03:19;7.25;6.25;5.00
76101;PMS7003;64830;46.910;6.354;2023-06-22T03:05:45;6.25;6.25;5.00
76101;PMS7003;64830;46.910;6.354;2023-06-22T03:08:10;8.50;7.25;5.25
76101;PMS7003;64830;46.910;6.354;2023-06-22T03:10:36;5.00;5.00;4.00
76101;PMS7003;64830;46.910;6.354;2023-06-22T03:13:01;7.00;6.25;4.00
76101;PMS7003;64830;46.910;6.354;2023-06-22T03:15:27;7.75;5.50;5.00
76101;PMS7003;64830;46.910;6.354;2023-06-22T03:17:54;8.25;7.50;6.00
76101;PMS7003;64830;46.910;6.354;2023-06-22T03:20:20;4.25;2.75;1.75
76101;PMS7003;64830;46.910;6.354;2023-06-22T03:22:45;8.50;7.50;5.50
76101;PMS7003;64830;46.910;6.354;2023-06-22T03:25:10;6.00;5.00;4.25
76101;PMS7003;64830;46.910;6.354;2023-06-22T03:27:38;8.00;8.00;7.00
76101;PMS7003;64830;46.910;6.354;2023-06-22T03:30:05;8.25;6.00;4.00
76101;PMS7003;64830;46.910;6.354;2023-06-22T03:32:32;8.25;7.50;6.00
76101;PMS7003;64830;46.910;6.354;2023-06-22T03:34:57;5.25;4.75;4.00
76101;PMS7003;64830;46.910;6.354;2023-06-22T03:37:24;4.25;4.25;4.25
76101;PMS7003;64830;46.910;6.354;2023-06-22T03:39:50;7.00;7.00;5.00
76101;PMS7003;64830;46.910;6.354;2023-06-22T03:42:16;7.00;6.00;4.50
76101;PMS7003;64830;46.910;6.354;2023-06-22T03:44:41;8.00;6.25;4.25
76101;PMS7003;64830;46.910;6.354;2023-06-22T03:47:07;8.00;7.00;4.75
76101;PMS7003;64830;46.910;6.354;2023-06-22T03:49:33;11.25;10.00;8.75
76101;PMS7003;64830;46.910;6.354;2023-06-22T03:51:59;6.00;6.00;4.00
76101;PMS7003;64830;46.910;6.354;2023-06-22T03:54:26;9.25;5.50;4.75
76101;PMS7003;64830;46.910;6.354;2023-06-22T03:56:51;7.00;5.00;5.00
76101;PMS7003;64830;46.910;6.354;2023-06-22T03:59:16;9.25;8.00;7.00
76101;PMS7003;64830;46.910;6.354;2023-06-22T04:01:42;10.75;9.00;7.00
76101;PMS7003;64830;46.910;6.354;2023-06-22T04:04:08;6.75;6.75;5.50
76101;PMS7003;64830;46.910;6.354;2023-06-22T04:06:33;7.25;7.25;5.25
76101;PMS7003;64830;46.910;6.354;2023-06-22T04:08:59;7.50;6.75;5.00
76101;PMS7003;64830;46.910;6.354;2023-06-22T04:11:25;6.50;6.50;6.25
76101;PMS7003;64830;46.910;6.354;2023-06-22T04:13:51;9.25;7.50;5.75
76101;PMS7003;64830;46.910;6.354;2023-06-22T04:16:17;7.00;7.00;5.25
76101;PMS7003;64830;46.910;6.354;2023-06-22T04:18:42;9.00;9.00;6.75
76101;PMS7003;64830;46.910;6.354;2023-06-22T04:21:07;9.00;8.50;7.00
76101;PMS7003;64830;46.910;6.354;2023-06-22T04:23:33;11.00;7.50;6.00
76101;PMS7003;64830;46.910;6.354;2023-06-22T04:25:58;6.25;4.75;3.75
76101;PMS7003;64830;46.910;6.354;2023-06-22T04:28:26;10.25;9.50;7.75
76101;PMS7003;64830;46.910;6.354;2023-06-22T04:30:52;6.50;6.50;5.00
76101;PMS7003;64830;46.910;6.354;2023-06-22T04:33:17;7.25;7.25;5.00
76101;PMS7003;64830;46.910;6.354;2023-06-22T04:35:46;7.50;6.00;4.75
76101;PMS7003;64830;46.910;6.354;2023-06-22T04:38:12;6.25;5.50;3.25
76101;PMS7003;64830;46.910;6.354;2023-06-22T04:40:41;8.50;6.50;5.00
76101;PMS7003;64830;46.910;6.354;2023-06-22T04:43:06;7.00;6.25;4.00
76101;PMS7003;64830;46.910;6.354;2023-06-22T04:45:32;8.50;8.50;5.50
76101;PMS7003;64830;46.910;6.354;2023-06-22T04:47:58;6.75;6.75;5.00
76101;PMS7003;64830;46.910;6.354;2023-06-22T04:50:24;12.00;10.00;8.00
76101;PMS7003;64830;46.910;6.354;2023-06-22T04:52:50;6.00;5.00;4.25
76101;PMS7003;64830;46.910;6.354;2023-06-22T04:55:16;7.25;7.25;5.25
76101;PMS7003;64830;46.910;6.354;2023-06-22T04:57:45;8.75;8.25;5.25
76101;PMS7003;64830;46.910;6.354;2023-06-22T05:00:22;7.50;7.00;5.00
76101;PMS7003;64830;46.910;6.354;2023-06-22T05:02:48;8.50;5.75;4.75
76101;PMS7003;64830;46.910;6.354;2023-06-22T05:05:14;9.25;6.75;5.25
76101;PMS7003;64830;46.910;6.354;2023-06-22T05:07:43;10.00;8.00;6.25
76101;PMS7003;64830;46.910;6.354;2023-06-22T05:10:11;5.25;5.25;4.25
76101;PMS7003;64830;46.910;6.354;2023-06-22T05:12:40;6.50;5.75;4.75
76101;PMS7003;64830;46.910;6.354;2023-06-22T05:15:07;9.00;7.25;4.75
76101;PMS7003;64830;46.910;6.354;2023-06-22T05:17:33;6.75;6.75;5.00
76101;PMS7003;64830;46.910;6.354;2023-06-22T05:19:58;7.25;7.25;5.75
76101;PMS7003;64830;46.910;6.354;2023-06-22T05:22:24;11.25;9.75;6.75
76101;PMS7003;64830;46.910;6.354;2023-06-22T05:24:49;9.50;9.50;7.00
76101;PMS7003;64830;46.910;6.354;2023-06-22T05:27:15;10.75;9.25;7.50
76101;PMS7003;64830;46.910;6.354;2023-06-22T05:29:40;9.25;9.25;7.25
76101;PMS7003;64830;46.910;6.354;2023-06-22T05:32:07;6.00;6.00;4.75
76101;PMS7003;64830;46.910;6.354;2023-06-22T05:34:33;9.75;6.50;5.00
76101;PMS7003;64830;46.910;6.354;2023-06-22T05:36:58;9.25;8.50;6.00
76101;PMS7003;64830;46.910;6.354;2023-06-22T05:39:24;8.75;7.75;6.75
76101;PMS7003;64830;46.910;6.354;2023-06-22T05:41:50;8.50;8.50;5.50
76101;PMS7003;64830;46.910;6.354;2023-06-22T05:44:16;8.25;6.75;5.00
76101;PMS7003;64830;46.910;6.354;2023-06-22T05:46:42;5.00;5.00;4.75
76101;PMS7003;64830;46.910;6.354;2023-06-22T05:49:13;8.50;8.50;7.50
76101;PMS7003;64830;46.910;6.354;2023-06-22T05:51:39;8.75;7.00;4.25
76101;PMS7003;64830;46.910;6.354;2023-06-22T05:54:05;9.00;8.00;5.25
76101;PMS7003;64830;46.910;6.354;2023-06-22T05:56:30;8.50;5.25;4.25
76101;PMS7003;64830;46.910;6.354;2023-06-22T05:58:56;11.00;7.25;5.00
76101;PMS7003;64830;46.910;6.354;2023-06-22T06:01:21;8.75;5.75;4.00
76101;PMS7003;64830;46.910;6.354;2023-06-22T06:03:47;8.75;6.75;5.50
76101;PMS7003;64830;46.910;6.354;2023-06-22T06:06:14;7.75;6.75;4.00
76101;PMS7003;64830;46.910;6.354;2023-06-22T06:08:40;8.50;8.00;6.00
76101;PMS7003;64830;46.910;6.354;2023-06-22T06:11:06;7.50;5.25;4.25
76101;PMS7003;64830;46.910;6.354;2023-06-22T06:13:31;8.25;7.75;5.25
76101;PMS7003;64830;46.910;6.354;2023-06-22T06:15:57;9.00;7.00;5.25
76101;PMS7003;64830;46.910;6.354;2023-06-22T06:18:22;7.50;5.75;4.00
76101;PMS7003;64830;46.910;6.354;2023-06-22T06:20:48;4.75;4.75;2.00
76101;PMS7003;64830;46.910;6.354;2023-06-22T06:23:13;4.75;4.00;3.25
76101;PMS7003;64830;46.910;6.354;2023-06-22T06:25:39;8.75;5.25;4.00
76101;PMS7003;64830;46.910;6.354;2023-06-22T06:28:04;9.25;5.50;4.50
76101;PMS7003;64830;46.910;6.354;2023-06-22T06:30:30;7.50;7.50;5.00
76101;PMS7003;64830;46.910;6.354;2023-06-22T06:32:56;9.25;6.00;4.50
76101;PMS7003;64830;46.910;6.354;2023-06-22T06:35:21;7.75;7.75;6.25
76101;PMS7003;64830;46.910;6.354;2023-06-22T06:37:49;8.00;7.25;4.50
76101;PMS7003;64830;46.910;6.354;2023-06-22T06:40:16;7.75;6.50;5.00
76101;PMS7003;64830;46.910;6.354;2023-06-22T06:42:46;10.25;8.50;6.00
76101;PMS7003;64830;46.910;6.354;2023-06-22T06:45:17;6.00;5.00;4.50
76101;PMS7003;64830;46.910;6.354;2023-06-22T06:47:44;5.00;5.00;3.00
76101;PMS7003;64830;46.910;6.354;2023-06-22T06:50:10;7.50;6.25;6.00
76101;PMS7003;64830;46.910;6.354;2023-06-22T06:52:36;8.50;6.25;4.50
76101;PMS7003;64830;46.910;6.354;2023-06-22T06:55:02;7.25;6.75;5.50
76101;PMS7003;64830;46.910;6.354;2023-06-22T06:57:40;6.25;5.75;5.00
76101;PMS7003;64830;46.910;6.354;2023-06-22T07:00:07;8.75;8.00;6.00
76101;PMS7003;64830;46.910;6.354;2023-06-22T07:02:41;4.00;3.00;1.25
76101;PMS7003;64830;46.910;6.354;2023-06-22T07:05:09;4.50;3.50;3.00
76101;PMS7003;64830;46.910;6.354;2023-06-22T07:07:35;7.75;6.75;5.25
76101;PMS7003;64830;46.910;6.354;2023-06-22T07:10:01;4.25;4.25;3.00
76101;PMS7003;64830;46.910;6.354;2023-06-22T07:12:27;9.75;8.00;5.50
76101;PMS7003;64830;46.910;6.354;2023-06-22T07:14:53;9.25;8.25;5.50
76101;PMS7003;64830;46.910;6.354;2023-06-22T07:17:18;8.25;6.00;5.00
76101;PMS7003;64830;46.910;6.354;2023-06-22T07:19:45;6.25;5.00;4.00
76101;PMS7003;64830;46.910;6.354;2023-06-22T07:22:12;6.25;6.25;5.25
76101;PMS7003;64830;46.910;6.354;2023-06-22T07:24:37;8.00;6.25;5.00
76101;PMS7003;64830;46.910;6.354;2023-06-22T07:27:03;7.25;5.00;4.00
76101;PMS7003;64830;46.910;6.354;2023-06-22T07:29:30;7.50;7.50;5.25
76101;PMS7003;64830;46.910;6.354;2023-06-22T07:31:56;4.75;4.75;3.75
76101;PMS7003;64830;46.910;6.354;2023-06-22T07:34:22;7.75;6.00;6.00
76101;PMS7003;64830;46.910;6.354;2023-06-22T07:36:47;4.75;4.25;3.50
76101;PMS7003;64830;46.910;6.354;2023-06-22T07:39:13;7.00;7.00;4.75
76101;PMS7003;64830;46.910;6.354;2023-06-22T07:41:39;7.00;5.50;4.00
76101;PMS7003;64830;46.910;6.354;2023-06-22T07:44:08;6.00;5.25;4.00
76101;PMS7003;64830;46.910;6.354;2023-06-22T07:46:33;5.25;5.00;4.00
76101;PMS7003;64830;46.910;6.354;2023-06-22T07:48:59;6.75;5.75;4.00
76101;PMS7003;64830;46.910;6.354;2023-06-22T07:51:24;6.25;6.25;5.00
76101;PMS7003;64830;46.910;6.354;2023-06-22T07:53:50;5.00;5.00;3.75
76101;PMS7003;64830;46.910;6.354;2023-06-22T07:56:15;5.50;4.25;3.75
76101;PMS7003;64830;46.910;6.354;2023-06-22T07:58:45;6.00;5.00;4.00
76101;PMS7003;64830;46.910;6.354;2023-06-22T08:01:11;4.50;4.50;3.75
76101;PMS7003;64830;46.910;6.354;2023-06-22T08:03:37;6.00;6.00;4.00
76101;PMS7003;64830;46.910;6.354;2023-06-22T08:06:02;5.50;4.00;3.00
76101;PMS7003;64830;46.910;6.354;2023-06-22T08:08:28;4.00;3.00;2.25
76101;PMS7003;64830;46.910;6.354;2023-06-22T08:10:54;4.00;3.75;2.00
76101;PMS7003;64830;46.910;6.354;2023-06-22T08:13:19;5.00;5.00;3.25
76101;PMS7003;64830;46.910;6.354;2023-06-22T08:15:45;4.25;4.00;3.00
76101;PMS7003;64830;46.910;6.354;2023-06-22T08:18:10;3.50;3.50;2.00
76101;PMS7003;64830;46.910;6.354;2023-06-22T08:20:35;4.00;3.75;3.00
76101;PMS7003;64830;46.910;6.354;2023-06-22T08:23:01;7.25;4.75;3.25
76101;PMS7003;64830;46.910;6.354;2023-06-22T08:25:31;5.25;4.00;2.75
76101;PMS7003;64830;46.910;6.354;2023-06-22T08:27:58;5.00;4.00;3.50
76101;PMS7003;64830;46.910;6.354;2023-06-22T08:30:23;4.75;4.75;3.00
76101;PMS7003;64830;46.910;6.354;2023-06-22T08:32:49;7.75;5.00;3.00
76101;PMS7003;64830;46.910;6.354;2023-06-22T08:35:14;7.00;5.50;3.00
76101;PMS7003;64830;46.910;6.354;2023-06-22T08:37:41;6.50;5.00;3.75
76101;PMS7003;64830;46.910;6.354;2023-06-22T08:40:07;5.50;5.25;3.50
76101;PMS7003;64830;46.910;6.354;2023-06-22T08:42:37;3.50;3.50;2.50
76101;PMS7003;64830;46.910;6.354;2023-06-22T08:45:05;7.00;5.50;3.50
76101;PMS7003;64830;46.910;6.354;2023-06-22T08:47:31;6.25;3.25;2.00
76101;PMS7003;64830;46.910;6.354;2023-06-22T08:49:56;6.00;6.00;4.00
76101;PMS7003;64830;46.910;6.354;2023-06-22T08:52:22;5.50;4.00;3.00
76101;PMS7003;64830;46.910;6.354;2023-06-22T08:54:48;5.75;5.75;3.50
76101;PMS7003;64830;46.910;6.354;2023-06-22T08:57:14;5.50;5.50;3.25
76101;PMS7003;64830;46.910;6.354;2023-06-22T08:59:39;8.75;4.25;3.50
76101;PMS7003;64830;46.910;6.354;2023-06-22T09:02:05;5.00;3.00;2.50
76101;PMS7003;64830;46.910;6.354;2023-06-22T09:04:31;3.25;3.25;2.00
76101;PMS7003;64830;46.910;6.354;2023-06-22T09:06:59;5.75;3.50;2.25
76101;PMS7003;64830;46.910;6.354;2023-06-22T09:09:25;3.50;3.50;2.75
76101;PMS7003;64830;46.910;6.354;2023-06-22T09:11:51;6.00;6.00;3.50
76101;PMS7003;64830;46.910;6.354;2023-06-22T09:14:16;3.50;3.50;3.00
76101;PMS7003;64830;46.910;6.354;2023-06-22T09:16:42;3.00;2.75;2.00
76101;PMS7003;64830;46.910;6.354;2023-06-22T09:19:07;4.25;4.25;3.25
76101;PMS7003;64830;46.910;6.354;2023-06-22T09:21:32;5.00;4.25;3.00
76101;PMS7003;64830;46.910;6.354;2023-06-22T09:23:58;6.00;5.00;3.00
76101;PMS7003;64830;46.910;6.354;2023-06-22T09:26:23;5.00;4.25;3.00
76101;PMS7003;64830;46.910;6.354;2023-06-22T09:28:49;5.50;4.25;2.00
76101;PMS7003;64830;46.910;6.354;2023-06-22T09:31:15;5.25;4.25;3.00
76101;PMS7003;64830;46.910;6.354;2023-06-22T09:33:41;0.50;0.50;0.50
76101;PMS7003;64830;46.910;6.354;2023-06-22T09:36:07;4.00;4.00;3.00
76101;PMS7003;64830;46.910;6.354;2023-06-22T09:38:36;3.75;3.75;3.00
76101;PMS7003;64830;46.910;6.354;2023-06-22T09:41:02;5.25;4.75;3.00
76101;PMS7003;64830;46.910;6.354;2023-06-22T09:43:27;5.75;4.25;3.25
76101;PMS7003;64830;46.910;6.354;2023-06-22T09:45:53;4.50;2.75;2.25
76101;PMS7003;64830;46.910;6.354;2023-06-22T09:48:18;5.00;4.75;3.00
76101;PMS7003;64830;46.910;6.354;2023-06-22T09:50:44;5.00;4.00;2.75
76101;PMS7003;64830;46.910;6.354;2023-06-22T09:53:09;3.25;2.75;2.00
76101;PMS7003;64830;46.910;6.354;2023-06-22T09:55:35;6.25;3.50;2.75
76101;PMS7003;64830;46.910;6.354;2023-06-22T09:58:00;5.00;3.75;2.00
76101;PMS7003;64830;46.910;6.354;2023-06-22T10:00:25;5.00;3.00;2.75
76101;PMS7003;64830;46.910;6.354;2023-06-22T10:02:52;3.75;3.75;2.00
76101;PMS7003;64830;46.910;6.354;2023-06-22T10:05:17;2.50;2.50;2.00
76101;PMS7003;64830;46.910;6.354;2023-06-22T10:07:43;3.25;2.00;1.75
76101;PMS7003;64830;46.910;6.354;2023-06-22T10:10:09;4.75;4.50;2.00
76101;PMS7003;64830;46.910;6.354;2023-06-22T10:12:35;7.00;3.00;1.75
76101;PMS7003;64830;46.910;6.354;2023-06-22T10:15:01;4.00;2.25;1.25
76101;PMS7003;64830;46.910;6.354;2023-06-22T10:17:26;2.25;1.00;0.75
76101;PMS7003;64830;46.910;6.354;2023-06-22T10:19:52;3.25;3.25;2.00
76101;PMS7003;64830;46.910;6.354;2023-06-22T10:22:17;2.25;2.25;1.00
76101;PMS7003;64830;46.910;6.354;2023-06-22T10:24:43;4.25;2.25;2.00
76101;PMS7003;64830;46.910;6.354;2023-06-22T10:27:12;4.50;3.50;2.00
76101;PMS7003;64830;46.910;6.354;2023-06-22T10:29:38;7.00;5.50;3.75
76101;PMS7003;64830;46.910;6.354;2023-06-22T10:32:04;7.50;5.75;4.50
76101;PMS7003;64830;46.910;6.354;2023-06-22T10:34:30;8.25;8.00;5.25
76101;PMS7003;64830;46.910;6.354;2023-06-22T10:36:55;8.75;7.75;6.00
76101;PMS7003;64830;46.910;6.354;2023-06-22T10:39:20;6.00;6.00;5.00
76101;PMS7003;64830;46.910;6.354;2023-06-22T10:41:46;9.50;7.25;5.00
76101;PMS7003;64830;46.910;6.354;2023-06-22T10:44:11;9.00;7.50;6.00
76101;PMS7003;64830;46.910;6.354;2023-06-22T10:46:38;8.75;8.25;6.00
76101;PMS7003;64830;46.910;6.354;2023-06-22T10:49:04;9.50;9.50;7.00
76101;PMS7003;64830;46.910;6.354;2023-06-22T10:51:30;10.00;8.50;6.00
76101;PMS7003;64830;46.910;6.354;2023-06-22T10:53:56;12.00;9.00;7.00
76101;PMS7003;64830;46.910;6.354;2023-06-22T10:56:21;7.00;7.00;6.25
76101;PMS7003;64830;46.910;6.354;2023-06-22T10:58:47;14.50;12.75;7.75
76101;PMS7003;64830;46.910;6.354;2023-06-22T11:01:12;11.25;10.75;7.25
76101;PMS7003;64830;46.910;6.354;2023-06-22T11:03:39;7.50;7.25;6.00
76101;PMS7003;64830;46.910;6.354;2023-06-22T11:06:04;13.00;9.50;6.00
76101;PMS7003;64830;46.910;6.354;2023-06-22T11:08:29;12.25;11.00;8.25
76101;PMS7003;64830;46.910;6.354;2023-06-22T11:10:55;12.50;12.50;9.00
76101;PMS7003;64830;46.910;6.354;2023-06-22T11:13:20;11.50;11.00;8.25
76101;PMS7003;64830;46.910;6.354;2023-06-22T11:15:45;10.00;8.25;4.50
76101;PMS7003;64830;46.910;6.354;2023-06-22T11:18:11;10.50;10.50;8.00
76101;PMS7003;64830;46.910;6.354;2023-06-22T11:20:36;9.25;9.25;6.00
76101;PMS7003;64830;46.910;6.354;2023-06-22T11:23:07;11.50;11.50;8.00
76101;PMS7003;64830;46.910;6.354;2023-06-22T11:25:32;7.50;5.75;3.50
76101;PMS7003;64830;46.910;6.354;2023-06-22T11:28:03;12.75;12.00;8.00
76101;PMS7003;64830;46.910;6.354;2023-06-22T11:30:29;12.25;12.00;8.00
76101;PMS7003;64830;46.910;6.354;2023-06-22T11:32:56;13.00;10.50;6.00
76101;PMS7003;64830;46.910;6.354;2023-06-22T11:35:21;12.25;12.25;7.75
76101;PMS7003;64830;46.910;6.354;2023-06-22T11:37:47;12.25;12.25;9.50
76101;PMS7003;64830;46.910;6.354;2023-06-22T11:40:12;12.00;11.00;9.25
76101;PMS7003;64830;46.910;6.354;2023-06-22T11:42:38;8.25;8.00;5.00
76101;PMS7003;64830;46.910;6.354;2023-06-22T11:45:04;10.25;7.00;5.50
76101;PMS7003;64830;46.910;6.354;2023-06-22T11:47:30;9.75;9.75;7.00
76101;PMS7003;64830;46.910;6.354;2023-06-22T11:49:55;14.25;11.00;8.00
76101;PMS7003;64830;46.910;6.354;2023-06-22T11:52:21;11.50;11.00;9.25
76101;PMS7003;64830;46.910;6.354;2023-06-22T11:54:46;10.00;9.50;7.00
76101;PMS7003;64830;46.910;6.354;2023-06-22T11:57:11;12.00;12.00;7.00
76101;PMS7003;64830;46.910;6.354;2023-06-22T11:59:37;12.25;9.50;7.75
76101;PMS7003;64830;46.910;6.354;2023-06-22T12:02:03;11.50;11.50;10.00
76101;PMS7003;64830;46.910;6.354;2023-06-22T12:04:30;13.50;12.50;7.75
76101;PMS7003;64830;46.910;6.354;2023-06-22T12:06:55;12.75;11.25;7.75
76101;PMS7003;64830;46.910;6.354;2023-06-22T12:09:21;6.25;6.25;5.00
76101;PMS7003;64830;46.910;6.354;2023-06-22T12:11:46;9.50;8.75;7.00
76101;PMS7003;64830;46.910;6.354;2023-06-22T12:14:11;13.75;11.25;7.75
76101;PMS7003;64830;46.910;6.354;2023-06-22T12:16:37;11.00;8.00;7.00
76101;PMS7003;64830;46.910;6.354;2023-06-22T12:19:02;13.00;11.25;8.50
76101;PMS7003;64830;46.910;6.354;2023-06-22T12:21:28;12.25;9.25;7.00
76101;PMS7003;64830;46.910;6.354;2023-06-22T12:23:54;10.25;9.00;6.00
76101;PMS7003;64830;46.910;6.354;2023-06-22T12:26:19;13.75;10.50;7.50
76101;PMS7003;64830;46.910;6.354;2023-06-22T12:28:44;10.75;10.25;6.50
76101;PMS7003;64830;46.910;6.354;2023-06-22T12:31:10;13.75;12.75;9.25
76101;PMS7003;64830;46.910;6.354;2023-06-22T12:33:35;11.75;9.00;6.75
76101;PMS7003;64830;46.910;6.354;2023-06-22T12:36:01;9.50;9.50;6.50
76101;PMS7003;64830;46.910;6.354;2023-06-22T12:38:26;16.00;14.25;9.50
76101;PMS7003;64830;46.910;6.354;2023-06-22T12:40:52;8.50;8.50;6.25
76101;PMS7003;64830;46.910;6.354;2023-06-22T12:43:18;11.75;10.75;7.25
76101;PMS7003;64830;46.910;6.354;2023-06-22T12:45:43;8.75;8.50;6.00
76101;PMS7003;64830;46.910;6.354;2023-06-22T12:48:09;10.50;9.75;6.50
76101;PMS7003;64830;46.910;6.354;2023-06-22T12:50:34;10.25;9.75;7.00
76101;PMS7003;64830;46.910;6.354;2023-06-22T12:52:59;12.50;11.50;8.00
76101;PMS7003;64830;46.910;6.354;2023-06-22T12:55:27;9.25;8.25;6.00
76101;PMS7003;64830;46.910;6.354;2023-06-22T12:57:52;8.75;8.75;6.00
76101;PMS7003;64830;46.910;6.354;2023-06-22T13:00:18;11.00;9.00;6.25
76101;PMS7003;64830;46.910;6.354;2023-06-22T13:02:44;9.00;7.75;5.75
76101;PMS7003;64830;46.910;6.354;2023-06-22T13:05:10;12.75;11.25;8.00
76101;PMS7003;64830;46.910;6.354;2023-06-22T13:07:36;13.50;11.50;8.00
76101;PMS7003;64830;46.910;6.354;2023-06-22T13:10:01;10.25;8.50;6.00
76101;PMS7003;64830;46.910;6.354;2023-06-22T13:12:27;10.50;8.75;6.50
76101;PMS7003;64830;46.910;6.354;2023-06-22T13:14:52;6.50;3.75;1.00
76101;PMS7003;64830;46.910;6.354;2023-06-22T13:17:18;8.25;6.25;5.00
76101;PMS7003;64830;46.910;6.354;2023-06-22T13:19:43;9.00;9.00;6.00
76101;PMS7003;64830;46.910;6.354;2023-06-22T13:22:30;8.75;8.00;5.75
76101;PMS7003;64830;46.910;6.354;2023-06-22T13:24:55;9.00;8.00;6.00
76101;PMS7003;64830;46.910;6.354;2023-06-22T13:27:22;7.75;7.50;6.00
76101;PMS7003;64830;46.910;6.354;2023-06-22T13:29:47;11.50;9.00;5.25
76101;PMS7003;64830;46.910;6.354;2023-06-22T13:32:13;9.00;7.00;5.50
76101;PMS7003;64830;46.910;6.354;2023-06-22T13:34:38;9.50;9.50;7.00
76101;PMS7003;64830;46.910;6.354;2023-06-22T13:37:04;10.75;8.75;6.00
76101;PMS7003;64830;46.910;6.354;2023-06-22T13:39:29;9.25;7.75;5.00
76101;PMS7003;64830;46.910;6.354;2023-06-22T13:41:55;5.00;5.00;3.00
76101;PMS7003;64830;46.910;6.354;2023-06-22T13:44:21;7.50;6.75;4.25
76101;PMS7003;64830;46.910;6.354;2023-06-22T13:46:47;11.75;9.50;7.00
76101;PMS7003;64830;46.910;6.354;2023-06-22T13:49:13;7.50;7.50;4.75
76101;PMS7003;64830;46.910;6.354;2023-06-22T13:51:38;10.25;7.50;6.00
76101;PMS7003;64830;46.910;6.354;2023-06-22T13:54:03;5.75;5.75;4.25
76101;PMS7003;64830;46.910;6.354;2023-06-22T13:56:29;9.00;8.25;6.00
76101;PMS7003;64830;46.910;6.354;2023-06-22T13:58:54;6.25;5.25;4.00
76101;PMS7003;64830;46.910;6.354;2023-06-22T14:01:19;7.50;5.25;3.75
76101;PMS7003;64830;46.910;6.354;2023-06-22T14:03:45;7.25;5.00;4.00
76101;PMS7003;64830;46.910;6.354;2023-06-22T14:06:12;4.25;3.50;2.50
76101;PMS7003;64830;46.910;6.354;2023-06-22T14:08:38;2.00;2.00;1.00
76101;PMS7003;64830;46.910;6.354;2023-06-22T14:11:03;1.00;1.00;1.00
76101;PMS7003;64830;46.910;6.354;2023-06-22T14:13:29;4.00;4.00;2.25
76101;PMS7003;64830;46.910;6.354;2023-06-22T14:15:54;4.75;4.25;2.25
76101;PMS7003;64830;46.910;6.354;2023-06-22T14:18:20;4.75;4.75;4.00
76101;PMS7003;64830;46.910;6.354;2023-06-22T14:20:47;4.75;4.75;3.00
76101;PMS7003;64830;46.910;6.354;2023-06-22T14:23:13;6.75;6.50;5.00
76101;PMS7003;64830;46.910;6.354;2023-06-22T14:25:39;7.25;7.00;4.00